createdAt,value
2023-05-18T00:01:43.408Z,9.80
2023-05-18T00:05:04.940Z,9.80
2023-05-18T00:08:26.318Z,9.80
2023-05-18T00:11:47.756Z,9.80
2023-05-18T00:15:10.106Z,9.80
2023-05-18T00:18:34.367Z,9.70
2023-05-18T00:21:56.108Z,9.80
2023-05-18T00:25:17.540Z,9.80
2023-05-18T00:28:38.859Z,9.80
2023-05-18T00:32:00.293Z,9.80
2023-05-18T00:35:23.181Z,9.80
2023-05-18T00:38:44.548Z,9.80
2023-05-18T00:42:06.634Z,9.70
2023-05-18T00:45:28.375Z,9.70
2023-05-18T00:48:50.929Z,9.80
2023-05-18T00:52:14.965Z,9.80
2023-05-18T00:55:37.517Z,9.80
2023-05-18T00:58:59.355Z,9.70
2023-05-18T01:02:23.900Z,9.70
2023-05-18T01:05:45.243Z,9.70
2023-05-18T01:09:10.444Z,9.70
2023-05-18T01:12:47.235Z,9.70
2023-05-18T01:16:14.333Z,9.70
2023-05-18T01:19:57.256Z,9.70
2023-05-18T01:23:55.081Z,9.70
2023-05-18T01:27:24.754Z,9.70
2023-05-18T01:30:49.118Z,9.70
2023-05-18T01:34:10.640Z,9.70
2023-05-18T01:37:31.905Z,9.70
2023-05-18T01:40:58.002Z,9.70
2023-05-18T01:44:28.319Z,9.60
2023-05-18T01:47:56.913Z,9.70
2023-05-18T01:51:31.404Z,9.60
2023-05-18T01:54:58.908Z,9.70
2023-05-18T01:58:24.088Z,9.70
2023-05-18T02:01:47.224Z,9.60
2023-05-18T02:05:12.524Z,9.70
2023-05-18T02:08:34.014Z,9.60
2023-05-18T02:11:55.625Z,9.60
2023-05-18T02:15:17.167Z,9.60
2023-05-18T02:18:40.010Z,9.70
2023-05-18T02:22:01.340Z,9.70
2023-05-18T02:25:22.807Z,9.60
2023-05-18T02:28:44.065Z,9.60
2023-05-18T02:32:06.420Z,9.60
2023-05-18T02:35:29.416Z,9.60
2023-05-18T02:38:50.800Z,9.60
2023-05-18T02:42:13.051Z,9.60
2023-05-18T02:45:34.480Z,9.60
2023-05-18T02:48:55.769Z,9.60
2023-05-18T02:52:18.580Z,9.60
2023-05-18T02:55:41.212Z,9.60
2023-05-18T02:59:02.841Z,9.60
2023-05-18T03:02:24.324Z,9.60
2023-05-18T03:05:45.899Z,9.60
2023-05-18T03:09:08.693Z,9.70
2023-05-18T03:12:30.185Z,9.70
2023-05-18T03:15:52.112Z,9.70
2023-05-18T03:19:16.097Z,9.60
2023-05-18T03:22:37.589Z,9.70
2023-05-18T03:26:03.960Z,9.60
2023-05-18T03:29:25.628Z,9.70
2023-05-18T03:32:47.804Z,9.60
2023-05-18T03:36:09.758Z,9.70
2023-05-18T03:39:31.185Z,9.70
2023-05-18T03:42:53.857Z,9.70
2023-05-18T03:46:15.203Z,9.60
2023-05-18T03:49:37.176Z,9.60
2023-05-18T03:52:59.246Z,9.70
2023-05-18T03:56:21.163Z,9.70
2023-05-18T03:59:43.902Z,9.70
2023-05-18T04:03:05.571Z,9.70
2023-05-18T04:06:27.298Z,9.80
2023-05-18T04:09:49.002Z,9.80
2023-05-18T04:13:10.388Z,9.80
2023-05-18T04:16:33.337Z,9.80
2023-05-18T04:19:54.747Z,9.80
2023-05-18T04:23:16.986Z,9.70
2023-05-18T04:26:38.639Z,9.90
2023-05-18T04:30:00.144Z,9.90
2023-05-18T04:33:24.224Z,9.90
2023-05-18T04:36:46.341Z,10.00
2023-05-18T04:40:08.365Z,10.00
2023-05-18T04:43:29.746Z,10.00
2023-05-18T04:46:52.722Z,10.00
2023-05-18T04:50:16.543Z,10.00
2023-05-18T04:53:39.668Z,10.00
2023-05-18T04:57:02.432Z,10.10
2023-05-18T05:00:24.321Z,10.30
2023-05-18T05:03:46.254Z,10.30
2023-05-18T05:07:09.287Z,10.40
2023-05-18T05:10:30.618Z,10.40
2023-05-18T05:13:51.970Z,10.50
2023-05-18T05:17:13.652Z,10.50
2023-05-18T05:20:37.478Z,10.50
2023-05-18T05:24:01.804Z,10.50
2023-05-18T05:27:24.372Z,10.50
2023-05-18T05:30:45.943Z,10.50
2023-05-18T05:34:07.370Z,10.50
2023-05-18T05:37:28.813Z,10.40
2023-05-18T05:40:51.643Z,10.40
2023-05-18T05:44:13.138Z,10.40
2023-05-18T05:47:34.614Z,10.40
2023-05-18T05:50:56.307Z,10.50
2023-05-18T05:54:17.819Z,10.50
2023-05-18T05:57:42.985Z,10.50
2023-05-18T06:01:05.632Z,10.50
2023-05-18T06:04:27.035Z,10.60
2023-05-18T06:07:48.639Z,10.70
2023-05-18T06:11:11.388Z,10.70
2023-05-18T06:14:34.488Z,10.70
2023-05-18T06:17:55.931Z,10.70
2023-05-18T06:21:17.477Z,10.80
2023-05-18T06:24:38.915Z,10.80
2023-05-18T06:28:00.379Z,10.80
2023-05-18T06:31:28.215Z,10.80
2023-05-18T06:34:53.656Z,10.90
2023-05-18T06:38:16.108Z,10.90
2023-05-18T06:41:37.645Z,10.90
2023-05-18T06:45:00.271Z,10.90
2023-05-18T06:48:23.586Z,11.00
2023-05-18T06:51:45.828Z,10.90
2023-05-18T06:55:07.863Z,10.90
2023-05-18T06:58:29.332Z,11.00
2023-05-18T07:01:50.687Z,11.10
2023-05-18T07:05:13.605Z,11.20
2023-05-18T07:08:37.112Z,11.20
2023-05-18T07:11:58.657Z,11.20
2023-05-18T07:15:20.103Z,11.20
2023-05-18T07:18:42.351Z,11.20
2023-05-18T07:22:05.382Z,11.20
2023-05-18T07:25:26.639Z,11.30
2023-05-18T07:28:48.776Z,11.30
2023-05-18T07:32:10.071Z,11.30
2023-05-18T07:35:31.700Z,11.40
2023-05-18T07:38:56.945Z,11.40
2023-05-18T07:42:18.306Z,11.40
2023-05-18T07:45:39.521Z,11.50
2023-05-18T07:49:01.746Z,11.50
2023-05-18T07:52:23.047Z,11.50
2023-05-18T07:55:46.918Z,11.60
2023-05-18T07:59:08.462Z,11.60
2023-05-18T08:02:32.886Z,11.70
2023-05-18T08:05:55.287Z,11.80
2023-05-18T08:09:16.764Z,11.90
2023-05-18T08:12:39.529Z,11.90
2023-05-18T08:16:11.233Z,11.90
2023-05-18T08:19:33.973Z,12.00
2023-05-18T08:22:55.248Z,12.00
2023-05-18T08:26:16.779Z,12.00
2023-05-18T08:29:39.552Z,12.00
2023-05-18T08:33:01.758Z,12.10
2023-05-18T08:36:23.462Z,12.20
2023-05-18T08:39:46.264Z,12.20
2023-05-18T08:43:19.175Z,12.30
2023-05-18T08:46:48.467Z,12.30
2023-05-18T08:50:16.083Z,12.30
2023-05-18T08:53:41.631Z,12.40
2023-05-18T08:57:05.952Z,12.50
2023-05-18T09:00:30.105Z,12.40
2023-05-18T09:03:53.783Z,12.50
2023-05-18T09:07:15.849Z,12.60
2023-05-18T09:10:40.317Z,12.70
2023-05-18T09:14:03.999Z,12.70
2023-05-18T09:17:26.265Z,12.80
2023-05-18T09:20:50.520Z,12.80
2023-05-18T09:24:11.995Z,12.80
2023-05-18T09:27:33.392Z,12.80
2023-05-18T09:30:54.955Z,12.90
2023-05-18T09:34:16.491Z,13.20
2023-05-18T09:37:42.630Z,13.10
2023-05-18T09:41:04.591Z,13.10
2023-05-18T09:44:31.868Z,13.20
2023-05-18T09:47:53.228Z,13.20
2023-05-18T09:51:17.025Z,13.20
2023-05-18T09:54:43.245Z,13.20
2023-05-18T09:58:04.857Z,13.30
2023-05-18T10:01:26.892Z,13.40
2023-05-18T10:04:57.667Z,13.40
2023-05-18T10:08:19.274Z,13.50
2023-05-18T10:11:44.256Z,13.60
2023-05-18T10:15:06.293Z,13.70
2023-05-18T10:18:29.452Z,13.70
2023-05-18T10:21:52.884Z,13.80
2023-05-18T10:25:19.722Z,13.90
2023-05-18T10:28:44.211Z,14.00
2023-05-18T10:32:08.009Z,14.20
2023-05-18T10:35:30.417Z,14.40
2023-05-18T10:38:53.407Z,14.60
2023-05-18T10:42:17.428Z,14.70
2023-05-18T10:45:42.745Z,14.50
2023-05-18T10:49:05.823Z,14.60
2023-05-18T10:52:31.931Z,14.60
2023-05-18T10:55:54.507Z,14.60
2023-05-18T10:59:20.383Z,14.50
2023-05-18T11:02:45.814Z,14.50
2023-05-18T11:06:10.290Z,14.50
2023-05-18T11:09:37.690Z,14.60
2023-05-18T11:13:07.269Z,14.80
2023-05-18T11:17:20.395Z,14.80
2023-05-18T11:21:19.775Z,14.80
2023-05-18T11:25:09.832Z,14.90
2023-05-18T11:28:33.726Z,14.90
2023-05-18T11:31:55.811Z,15.00
2023-05-18T11:35:52.630Z,15.10
2023-05-18T11:39:24.387Z,15.00
2023-05-18T11:42:59.170Z,15.10
2023-05-18T11:46:22.560Z,14.90
2023-05-18T11:49:47.576Z,15.00
2023-05-18T11:53:16.476Z,15.00
2023-05-18T11:56:39.096Z,15.00
2023-05-18T12:00:08.058Z,15.10
2023-05-18T12:03:31.474Z,15.00
2023-05-18T12:06:55.065Z,14.90
2023-05-18T12:10:17.254Z,14.90
2023-05-18T12:13:42.887Z,14.90
2023-05-18T12:17:07.970Z,14.80
2023-05-18T12:20:49.928Z,14.80
2023-05-18T12:24:12.601Z,14.80
2023-05-18T12:27:38.997Z,14.80
2023-05-18T12:31:07.460Z,14.80
2023-05-18T12:34:29.669Z,14.80
2023-05-18T12:37:51.597Z,14.80
2023-05-18T12:41:22.686Z,14.80
2023-05-18T12:44:45.066Z,14.80
2023-05-18T12:48:07.657Z,14.90
2023-05-18T12:51:33.373Z,14.80
2023-05-18T12:55:00.259Z,14.80
2023-05-18T12:58:23.334Z,14.90
2023-05-18T13:01:45.003Z,14.90
2023-05-18T13:05:08.833Z,14.80
2023-05-18T13:08:32.672Z,14.90
2023-05-18T13:12:07.383Z,14.80
2023-05-18T13:15:38.658Z,14.90
2023-05-18T13:19:02.125Z,15.00
2023-05-18T13:22:23.948Z,15.00
2023-05-18T13:25:46.392Z,15.00
2023-05-18T13:29:09.878Z,15.10
2023-05-18T13:32:32.657Z,15.10
2023-05-18T13:35:54.023Z,15.10
2023-05-18T13:39:15.272Z,15.10
2023-05-18T13:42:36.486Z,15.20
2023-05-18T13:45:58.402Z,15.30
2023-05-18T13:49:21.169Z,15.20
2023-05-18T13:52:42.531Z,15.40
2023-05-18T13:56:03.864Z,15.50
2023-05-18T13:59:25.153Z,15.50
2023-05-18T14:02:46.656Z,15.40
2023-05-18T14:06:10.110Z,15.20
2023-05-18T14:09:31.493Z,15.20
2023-05-18T14:12:52.773Z,15.30
2023-05-18T14:16:14.134Z,15.20
2023-05-18T14:19:36.182Z,15.20
2023-05-18T14:23:00.303Z,15.10
2023-05-18T14:26:22.463Z,15.10
2023-05-18T14:29:43.819Z,15.10
2023-05-18T14:33:05.287Z,15.10
2023-05-18T14:36:27.076Z,15.10
2023-05-18T14:39:49.825Z,15.20
2023-05-18T14:43:11.497Z,15.20
2023-05-18T14:46:32.801Z,15.20
2023-05-18T14:49:54.371Z,15.20
2023-05-18T14:53:15.656Z,15.20
2023-05-18T14:56:38.315Z,15.20
2023-05-18T15:00:00.573Z,15.20
2023-05-18T15:03:22.057Z,15.30
2023-05-18T15:06:43.432Z,15.30
2023-05-18T15:10:04.940Z,15.30
2023-05-18T15:13:27.598Z,15.40
2023-05-18T15:16:49.151Z,15.40
2023-05-18T15:20:10.979Z,15.40
2023-05-18T15:23:32.299Z,15.40
2023-05-18T15:26:54.012Z,15.30
2023-05-18T15:30:16.954Z,15.40
2023-05-18T15:33:42.164Z,15.40
2023-05-18T15:37:03.626Z,15.50
2023-05-18T15:40:25.342Z,15.50
2023-05-18T15:43:46.827Z,15.50
2023-05-18T15:47:09.859Z,15.50
2023-05-18T15:50:31.423Z,15.50
2023-05-18T15:53:52.999Z,15.40
2023-05-18T15:57:14.425Z,15.20
2023-05-18T16:00:35.979Z,15.30
2023-05-18T16:03:58.975Z,15.20
2023-05-18T16:07:20.723Z,15.20
2023-05-18T16:10:42.273Z,15.20
2023-05-18T16:14:03.810Z,15.10
2023-05-18T16:17:25.319Z,15.00
2023-05-18T16:20:48.325Z,15.00
2023-05-18T16:24:10.151Z,15.00
2023-05-18T16:27:31.665Z,14.90
2023-05-18T16:30:52.982Z,14.90
2023-05-18T16:34:14.321Z,14.80
2023-05-18T16:37:37.293Z,14.90
2023-05-18T16:40:59.241Z,14.70
2023-05-18T16:44:20.980Z,14.70
2023-05-18T16:47:42.562Z,14.80
2023-05-18T16:51:07.306Z,14.80
2023-05-18T16:54:30.995Z,14.70
2023-05-18T16:57:53.811Z,14.70
2023-05-18T17:01:27.457Z,14.70
2023-05-18T17:04:50.676Z,14.60
2023-05-18T17:08:12.752Z,14.50
2023-05-18T17:11:41.001Z,14.40
2023-05-18T17:15:02.979Z,14.50
2023-05-18T17:18:24.553Z,14.50
2023-05-18T17:21:46.586Z,14.50
2023-05-18T17:25:09.442Z,14.50
2023-05-18T17:28:32.273Z,14.40
2023-05-18T17:31:53.920Z,14.40
2023-05-18T17:35:15.820Z,14.40
2023-05-18T17:38:37.145Z,14.40
2023-05-18T17:42:00.234Z,14.30
2023-05-18T17:45:24.760Z,14.30
2023-05-18T17:48:46.431Z,14.30
2023-05-18T17:52:08.195Z,14.20
2023-05-18T17:55:29.561Z,14.20
2023-05-18T17:58:50.976Z,14.20
2023-05-18T18:02:14.328Z,14.10
2023-05-18T18:05:35.791Z,14.00
2023-05-18T18:08:57.967Z,14.00
2023-05-18T18:12:20.236Z,13.90
2023-05-18T18:15:41.643Z,13.90
2023-05-18T18:19:05.320Z,13.80
2023-05-18T18:22:26.758Z,13.80
2023-05-18T18:25:50.137Z,13.80
2023-05-18T18:29:11.494Z,13.70
2023-05-18T18:32:32.868Z,13.70
2023-05-18T18:35:56.131Z,13.50
2023-05-18T18:39:17.710Z,13.60
2023-05-18T18:42:39.225Z,13.50
2023-05-18T18:46:01.738Z,13.40
2023-05-18T18:49:31.581Z,13.30
2023-05-18T18:52:54.406Z,13.30
2023-05-18T18:56:15.831Z,13.30
2023-05-18T18:59:37.105Z,13.30
2023-05-18T19:03:03.343Z,13.20
2023-05-18T19:06:27.304Z,13.10
2023-05-18T19:09:50.590Z,13.10
2023-05-18T19:13:11.910Z,13.10
2023-05-18T19:16:37.910Z,13.10
2023-05-18T19:19:59.234Z,13.10
2023-05-18T19:23:20.567Z,13.00
2023-05-18T19:26:43.278Z,13.00
2023-05-18T19:30:05.491Z,12.90
2023-05-18T19:33:26.905Z,12.90
2023-05-18T19:36:48.301Z,12.80
2023-05-18T19:40:10.307Z,12.80
2023-05-18T19:43:33.022Z,12.80
2023-05-18T19:46:54.381Z,12.80
2023-05-18T19:50:15.633Z,12.80
2023-05-18T19:53:36.968Z,12.70
2023-05-18T19:56:58.321Z,12.70
2023-05-18T20:00:20.975Z,12.80
2023-05-18T20:03:43.536Z,12.60
2023-05-18T20:07:05.317Z,12.60
2023-05-18T20:10:26.677Z,12.50
2023-05-18T20:13:48.031Z,12.60
2023-05-18T20:17:10.886Z,12.50
2023-05-18T20:20:33.549Z,12.50
2023-05-18T20:23:55.187Z,12.50
2023-05-18T20:27:17.122Z,12.60
2023-05-18T20:30:38.532Z,12.60
2023-05-18T20:34:01.606Z,12.70
2023-05-18T20:37:25.345Z,12.70
2023-05-18T20:40:49.136Z,12.70
2023-05-18T20:44:11.308Z,12.60
2023-05-18T20:47:33.247Z,12.60
2023-05-18T20:50:56.433Z,12.70
2023-05-18T20:54:18.979Z,12.60
2023-05-18T20:57:40.779Z,12.60
2023-05-18T21:01:06.956Z,12.60
2023-05-18T21:04:28.493Z,12.60
2023-05-18T21:07:51.732Z,12.60
2023-05-18T21:11:13.029Z,12.60
2023-05-18T21:14:34.396Z,12.50
2023-05-18T21:17:55.784Z,12.40
2023-05-18T21:21:17.458Z,12.40
2023-05-18T21:24:40.315Z,12.30
2023-05-18T21:28:01.701Z,12.30
2023-05-18T21:31:24.041Z,12.40
2023-05-18T21:34:48.117Z,12.50
2023-05-18T21:38:09.497Z,12.40
2023-05-18T21:41:32.399Z,12.30
2023-05-18T21:44:53.690Z,12.30
2023-05-18T21:48:14.964Z,12.10
2023-05-18T21:51:36.674Z,12.10
2023-05-18T21:54:58.168Z,12.10
2023-05-18T21:58:21.462Z,12.10
2023-05-18T22:01:42.704Z,12.10
2023-05-18T22:05:04.323Z,12.10
2023-05-18T22:08:25.585Z,12.00
2023-05-18T22:11:47.170Z,12.00
2023-05-18T22:15:10.742Z,12.10
2023-05-18T22:18:32.250Z,12.00
2023-05-18T22:21:54.032Z,12.10
2023-05-18T22:25:16.504Z,12.20
2023-05-18T22:28:37.851Z,12.20
2023-05-18T22:32:00.663Z,12.20
2023-05-18T22:35:21.938Z,12.20
2023-05-18T22:38:43.992Z,12.20
2023-05-18T22:42:05.351Z,12.20
2023-05-18T22:45:26.792Z,12.20
2023-05-18T22:48:49.553Z,12.10
2023-05-18T22:52:10.766Z,12.10
2023-05-18T22:55:32.875Z,12.10
2023-05-18T22:58:54.160Z,12.00
2023-05-18T23:02:15.442Z,12.00
2023-05-18T23:05:41.274Z,12.00
2023-05-18T23:09:02.628Z,11.90
2023-05-18T23:12:23.951Z,12.00
2023-05-18T23:15:47.776Z,12.00
2023-05-18T23:19:09.682Z,11.90
2023-05-18T23:22:32.557Z,11.90
2023-05-18T23:25:53.856Z,11.90
2023-05-18T23:29:15.104Z,11.90
2023-05-18T23:32:36.787Z,11.80
2023-05-18T23:36:02.531Z,11.70
2023-05-18T23:39:27.960Z,11.80
2023-05-18T23:42:53.056Z,11.70
2023-05-18T23:46:17.170Z,11.70
2023-05-18T23:49:39.161Z,11.70
2023-05-18T23:53:04.463Z,11.60
2023-05-18T23:56:29.795Z,11.60
2023-05-18T23:59:51.685Z,11.60
